createdAt,value
2023-06-13T00:00:14.323Z,40.30
2023-06-13T00:03:02.386Z,40.30
2023-06-13T00:05:30.552Z,40.40
2023-06-13T00:07:58.443Z,40.40
2023-06-13T00:10:27.041Z,40.50
2023-06-13T00:12:54.747Z,40.50
2023-06-13T00:15:22.783Z,40.50
2023-06-13T00:17:50.575Z,40.60
2023-06-13T00:20:18.754Z,40.60
2023-06-13T00:22:46.639Z,40.60
2023-06-13T00:25:14.772Z,40.60
2023-06-13T00:27:42.461Z,40.70
2023-06-13T00:30:10.830Z,40.70
2023-06-13T00:32:38.502Z,40.70
2023-06-13T00:35:09.521Z,40.80
2023-06-13T00:37:38.324Z,40.90
2023-06-13T00:40:07.366Z,41.00
2023-06-13T00:42:35.040Z,41.00
2023-06-13T00:45:22.634Z,41.10
2023-06-13T00:48:01.176Z,41.20
2023-06-13T00:50:32.472Z,41.20
2023-06-13T00:53:12.757Z,41.20
2023-06-13T00:55:40.799Z,41.30
2023-06-13T00:58:09.258Z,41.40
2023-06-13T01:00:41.175Z,41.50
2023-06-13T01:03:09.116Z,41.50
2023-06-13T01:05:40.258Z,41.50
2023-06-13T01:08:11.738Z,41.60
2023-06-13T01:10:43.598Z,41.50
2023-06-13T01:13:37.261Z,41.50
2023-06-13T01:17:00.787Z,41.70
2023-06-13T01:19:41.808Z,41.60
2023-06-13T01:22:17.352Z,41.60
2023-06-13T01:25:05.697Z,41.50
2023-06-13T01:27:33.972Z,41.60
2023-06-13T01:30:04.120Z,41.70
2023-06-13T01:32:34.197Z,41.80
2023-06-13T01:35:03.978Z,41.80
2023-06-13T01:37:32.132Z,41.90
2023-06-13T01:39:59.864Z,41.90
2023-06-13T01:42:28.070Z,42.00
2023-06-13T01:44:55.975Z,42.10
2023-06-13T01:47:42.862Z,42.20
2023-06-13T01:50:23.819Z,42.20
2023-06-13T01:53:00.176Z,42.20
2023-06-13T01:55:58.390Z,42.20
2023-06-13T01:58:44.720Z,42.30
2023-06-13T02:01:15.279Z,42.20
2023-06-13T02:03:43.404Z,42.30
2023-06-13T02:06:11.170Z,42.40
2023-06-13T02:08:39.168Z,42.50
2023-06-13T02:11:06.870Z,42.60
2023-06-13T02:13:34.773Z,42.70
2023-06-13T02:16:02.553Z,42.70
2023-06-13T02:18:31.926Z,42.80
2023-06-13T02:21:00.617Z,43.00
2023-06-13T02:23:28.940Z,43.00
2023-06-13T02:25:57.190Z,43.20
2023-06-13T02:28:25.812Z,43.30
2023-06-13T02:30:53.712Z,43.30
2023-06-13T02:33:23.316Z,43.40
2023-06-13T02:35:51.048Z,43.40
2023-06-13T02:38:20.258Z,43.50
2023-06-13T02:40:48.222Z,43.60
2023-06-13T02:43:16.270Z,43.70
2023-06-13T02:45:44.191Z,43.90
2023-06-13T02:48:13.114Z,44.00
2023-06-13T02:50:40.846Z,44.10
2023-06-13T02:53:08.943Z,44.30
2023-06-13T02:55:38.147Z,44.40
2023-06-13T02:58:08.034Z,44.50
2023-06-13T03:00:37.948Z,44.70
2023-06-13T03:03:09.989Z,44.80
2023-06-13T03:05:38.194Z,45.00
2023-06-13T03:08:11.599Z,45.10
2023-06-13T03:10:40.242Z,45.20
2023-06-13T03:13:08.464Z,45.30
2023-06-13T03:15:37.901Z,45.40
2023-06-13T03:18:06.823Z,45.60
2023-06-13T03:20:34.703Z,45.70
2023-06-13T03:23:04.637Z,45.90
2023-06-13T03:25:32.557Z,46.00
2023-06-13T03:28:00.780Z,46.10
2023-06-13T03:30:29.194Z,46.30
2023-06-13T03:32:57.506Z,46.50
2023-06-13T03:35:28.733Z,46.60
2023-06-13T03:37:57.464Z,46.80
2023-06-13T03:40:27.362Z,46.90
2023-06-13T03:42:55.624Z,46.90
2023-06-13T03:45:25.763Z,46.90
2023-06-13T03:47:54.034Z,46.90
2023-06-13T03:50:21.972Z,46.90
2023-06-13T03:52:50.094Z,47.00
2023-06-13T03:55:19.512Z,47.10
2023-06-13T03:57:48.673Z,47.20
2023-06-13T04:00:17.491Z,47.20
2023-06-13T04:02:47.177Z,47.30
2023-06-13T04:05:15.081Z,47.40
2023-06-13T04:07:43.812Z,47.40
2023-06-13T04:10:12.256Z,47.40
2023-06-13T04:12:40.798Z,47.30
2023-06-13T04:15:08.668Z,47.30
2023-06-13T04:17:38.422Z,47.20
2023-06-13T04:20:10.571Z,47.20
2023-06-13T04:22:38.714Z,47.20
2023-06-13T04:25:06.485Z,47.20
2023-06-13T04:27:35.737Z,47.10
2023-06-13T04:30:03.773Z,47.10
2023-06-13T04:32:34.992Z,47.10
2023-06-13T04:35:03.313Z,46.90
2023-06-13T04:37:32.267Z,46.90
2023-06-13T04:40:00.217Z,46.90
2023-06-13T04:42:31.033Z,46.90
2023-06-13T04:45:02.090Z,46.80
2023-06-13T04:47:47.117Z,46.90
2023-06-13T04:50:20.812Z,46.90
2023-06-13T04:52:54.897Z,46.80
2023-06-13T04:55:24.254Z,46.90
2023-06-13T04:57:53.095Z,47.00
2023-06-13T05:00:21.560Z,47.10
2023-06-13T05:02:49.867Z,47.10
2023-06-13T05:05:19.838Z,47.10
2023-06-13T05:07:49.448Z,47.10
2023-06-13T05:10:19.162Z,47.10
2023-06-13T05:12:47.616Z,47.00
2023-06-13T05:15:15.513Z,47.00
2023-06-13T05:17:46.853Z,47.00
2023-06-13T05:20:16.466Z,47.00
2023-06-13T05:22:44.901Z,46.90
2023-06-13T05:25:16.892Z,46.80
2023-06-13T05:27:45.023Z,46.90
2023-06-13T05:30:13.512Z,46.90
2023-06-13T05:32:42.607Z,47.00
2023-06-13T05:35:10.724Z,47.00
2023-06-13T05:37:39.238Z,46.90
2023-06-13T05:40:09.699Z,47.00
2023-06-13T05:42:38.548Z,47.00
2023-06-13T05:45:08.172Z,47.00
2023-06-13T05:47:37.014Z,47.00
2023-06-13T05:50:06.148Z,47.10
2023-06-13T05:52:35.203Z,47.20
2023-06-13T05:55:03.117Z,47.20
2023-06-13T05:57:50.758Z,47.10
2023-06-13T06:00:19.095Z,46.80
2023-06-13T06:02:49.035Z,46.50
2023-06-13T06:05:17.224Z,46.30
2023-06-13T06:07:46.535Z,46.10
2023-06-13T06:10:15.702Z,45.90
2023-06-13T06:12:44.102Z,45.70
2023-06-13T06:15:12.010Z,45.50
2023-06-13T06:17:40.409Z,45.30
2023-06-13T06:20:08.976Z,45.10
2023-06-13T06:22:38.109Z,45.20
2023-06-13T06:25:07.052Z,45.20
2023-06-13T06:27:35.378Z,45.30
2023-06-13T06:30:03.172Z,45.30
2023-06-13T06:32:31.428Z,45.40
2023-06-13T06:34:59.267Z,45.50
2023-06-13T06:37:27.396Z,45.90
2023-06-13T06:39:55.240Z,46.70
2023-06-13T06:42:23.416Z,47.50
2023-06-13T06:45:20.403Z,48.00
2023-06-13T06:47:48.765Z,48.50
2023-06-13T06:50:16.756Z,48.70
2023-06-13T06:52:45.140Z,48.90
2023-06-13T06:55:13.101Z,48.90
2023-06-13T06:57:41.152Z,49.00
2023-06-13T07:00:11.699Z,49.00
2023-06-13T07:02:39.904Z,48.90
2023-06-13T07:05:08.087Z,48.80
2023-06-13T07:07:36.616Z,48.40
2023-06-13T07:10:06.497Z,48.00
2023-06-13T07:12:35.707Z,47.60
2023-06-13T07:15:04.680Z,47.20
2023-06-13T07:17:32.965Z,47.00
2023-06-13T07:20:01.276Z,46.80
2023-06-13T07:22:29.502Z,46.60
2023-06-13T07:24:57.629Z,46.50
2023-06-13T07:27:25.967Z,46.60
2023-06-13T07:29:53.637Z,46.80
2023-06-13T07:32:21.861Z,46.70
2023-06-13T07:35:04.932Z,46.80
2023-06-13T07:37:34.760Z,46.90
2023-06-13T07:40:05.171Z,46.80
2023-06-13T07:42:33.192Z,46.80
2023-06-13T07:45:01.098Z,46.90
2023-06-13T07:47:29.441Z,47.10
2023-06-13T07:49:57.119Z,47.30
2023-06-13T07:52:25.243Z,47.40
2023-06-13T07:54:52.923Z,47.60
2023-06-13T07:57:39.771Z,47.70
2023-06-13T08:00:17.563Z,47.90
2023-06-13T08:02:46.873Z,47.90
2023-06-13T08:05:16.847Z,47.60
2023-06-13T08:07:45.218Z,47.40
2023-06-13T08:10:13.251Z,47.20
2023-06-13T08:12:41.683Z,47.10
2023-06-13T08:15:10.854Z,47.10
2023-06-13T08:17:43.368Z,47.20
2023-06-13T08:20:12.629Z,47.20
2023-06-13T08:22:42.190Z,47.10
2023-06-13T08:25:10.520Z,47.10
2023-06-13T08:27:40.404Z,46.90
2023-06-13T08:30:09.068Z,46.60
2023-06-13T08:32:38.157Z,46.50
2023-06-13T08:35:07.614Z,46.40
2023-06-13T08:37:36.335Z,46.30
2023-06-13T08:40:06.870Z,46.20
2023-06-13T08:42:35.517Z,46.10
2023-06-13T08:45:03.605Z,45.90
2023-06-13T08:47:38.273Z,45.90
2023-06-13T08:50:08.720Z,45.70
2023-06-13T08:52:42.143Z,45.70
2023-06-13T08:55:45.995Z,45.70
2023-06-13T08:58:04.430Z,45.80
2023-06-13T09:00:37.945Z,45.70
2023-06-13T09:03:13.761Z,45.70
2023-06-13T09:05:43.030Z,45.70
2023-06-13T09:10:43.029Z,45.60
2023-06-13T09:13:13.871Z,45.60
2023-06-13T09:15:43.918Z,45.50
2023-06-13T09:18:12.741Z,45.40
2023-06-13T09:20:40.657Z,45.30
2023-06-13T09:23:09.270Z,45.70
2023-06-13T09:25:37.758Z,46.20
2023-06-13T09:28:32.385Z,46.90
2023-06-13T09:31:00.875Z,47.90
2023-06-13T09:33:29.340Z,48.60
2023-06-13T09:35:58.203Z,49.30
2023-06-13T09:38:28.921Z,49.40
2023-06-13T09:40:58.102Z,49.60
2023-06-13T09:43:27.642Z,50.60
2023-06-13T09:45:55.631Z,50.50
2023-06-13T09:48:24.195Z,50.40
2023-06-13T09:50:52.875Z,50.70
2023-06-13T09:53:21.445Z,50.90
2023-06-13T09:55:52.379Z,50.70
2023-06-13T09:58:31.516Z,50.80
2023-06-13T10:01:01.631Z,50.60
2023-06-13T10:03:30.374Z,50.60
2023-06-13T10:06:02.442Z,50.80
2023-06-13T10:08:33.168Z,50.90
2023-06-13T10:11:04.410Z,51.10
2023-06-13T10:13:41.491Z,51.50
2023-06-13T10:16:11.894Z,51.50
2023-06-13T10:18:43.138Z,51.50
2023-06-13T10:21:14.284Z,51.80
2023-06-13T10:23:46.268Z,51.50
2023-06-13T10:26:28.504Z,52.00
2023-06-13T10:29:03.350Z,52.10
2023-06-13T10:32:00.401Z,52.90
2023-06-13T10:34:48.372Z,53.00
2023-06-13T10:37:16.155Z,53.20
2023-06-13T10:40:05.257Z,53.50
2023-06-13T10:42:45.999Z,54.00
2023-06-13T10:45:28.577Z,54.00
2023-06-13T10:48:00.507Z,53.60
2023-06-13T10:50:28.643Z,53.90
2023-06-13T10:52:57.219Z,53.60
2023-06-13T10:55:27.059Z,53.40
2023-06-13T10:58:01.037Z,53.20
2023-06-13T11:00:36.550Z,53.40
2023-06-13T11:03:09.774Z,53.80
2023-06-13T11:05:49.736Z,54.00
2023-06-13T11:08:22.989Z,54.00
2023-06-13T11:10:53.058Z,54.20
2023-06-13T11:13:26.767Z,54.30
2023-06-13T11:16:21.905Z,54.60
2023-06-13T11:18:50.196Z,54.80
2023-06-13T11:21:18.316Z,55.10
2023-06-13T11:23:56.157Z,55.30
2023-06-13T11:26:24.484Z,55.20
2023-06-13T11:28:53.836Z,55.00
2023-06-13T11:31:22.175Z,54.70
2023-06-13T11:33:52.549Z,54.40
2023-06-13T11:36:23.025Z,54.10
2023-06-13T11:39:05.178Z,54.10
2023-06-13T11:41:33.675Z,53.80
2023-06-13T11:44:01.526Z,53.60
2023-06-13T11:46:30.060Z,53.50
2023-06-13T11:48:58.897Z,53.50
2023-06-13T11:51:32.306Z,53.30
2023-06-13T11:54:04.844Z,53.10
2023-06-13T11:56:36.318Z,52.90
2023-06-13T11:59:25.248Z,52.90
2023-06-13T12:01:55.507Z,53.00
2023-06-13T12:04:28.012Z,53.00
2023-06-13T12:06:56.671Z,53.20
2023-06-13T12:09:27.115Z,53.40
2023-06-13T12:11:56.987Z,53.60
2023-06-13T12:14:24.872Z,53.60
2023-06-13T12:16:55.377Z,53.50
2023-06-13T12:19:24.225Z,53.30
2023-06-13T12:21:57.050Z,53.20
2023-06-13T12:24:27.640Z,53.00
2023-06-13T12:26:56.431Z,52.70
2023-06-13T12:29:28.346Z,52.50
2023-06-13T12:32:08.184Z,52.30
2023-06-13T12:34:43.072Z,52.30
2023-06-13T12:37:14.300Z,52.10
2023-06-13T12:40:14.211Z,51.90
2023-06-13T12:42:44.343Z,51.60
2023-06-13T12:45:13.147Z,51.20
2023-06-13T12:47:41.437Z,51.10
2023-06-13T12:50:11.572Z,50.70
2023-06-13T12:52:40.207Z,50.50
2023-06-13T12:55:08.015Z,50.00
2023-06-13T12:57:37.126Z,49.60
2023-06-13T13:00:08.270Z,49.30
2023-06-13T13:02:36.931Z,49.60
2023-06-13T13:07:53.017Z,48.80
2023-06-13T13:10:20.682Z,48.70
2023-06-13T13:12:48.909Z,48.60
2023-06-13T13:15:16.868Z,48.40
2023-06-13T13:17:45.051Z,48.30
2023-06-13T13:20:13.171Z,48.00
2023-06-13T13:22:41.493Z,47.70
2023-06-13T13:25:09.317Z,47.60
2023-06-13T13:27:37.451Z,46.90
2023-06-13T13:30:05.574Z,46.00
2023-06-13T13:32:33.698Z,46.60
2023-06-13T13:35:03.802Z,46.70
2023-06-13T13:37:32.190Z,46.70
2023-06-13T13:40:00.026Z,46.20
2023-06-13T13:42:28.099Z,46.10
2023-06-13T13:44:55.976Z,46.00
2023-06-13T13:47:24.190Z,45.80
2023-06-13T13:49:52.071Z,45.90
2023-06-13T13:52:20.278Z,46.00
2023-06-13T13:54:48.130Z,45.70
2023-06-13T13:57:16.288Z,46.00
2023-06-13T13:59:46.042Z,46.10
2023-06-13T14:02:14.454Z,46.20
2023-06-13T14:04:42.230Z,46.00
2023-06-13T14:07:10.313Z,46.10
2023-06-13T14:09:38.008Z,46.30
2023-06-13T14:12:06.671Z,46.60
2023-06-13T14:14:34.446Z,46.80
2023-06-13T14:17:02.725Z,47.10
2023-06-13T14:19:30.966Z,47.40
2023-06-13T14:21:58.977Z,47.50
2023-06-13T14:24:26.772Z,47.50
2023-06-13T14:26:55.151Z,47.50
2023-06-13T14:29:22.974Z,47.50
2023-06-13T14:31:51.213Z,47.40
2023-06-13T14:34:19.172Z,47.40
2023-06-13T14:36:52.073Z,47.50
2023-06-13T14:39:20.619Z,47.90
2023-06-13T14:41:49.096Z,47.90
2023-06-13T14:44:18.298Z,48.00
2023-06-13T14:46:46.682Z,48.00
2023-06-13T14:49:14.484Z,48.00
2023-06-13T14:51:43.019Z,48.10
2023-06-13T14:54:12.539Z,48.00
2023-06-13T14:56:40.675Z,48.00
2023-06-13T14:59:08.340Z,48.00
2023-06-13T15:01:37.670Z,47.90
2023-06-13T15:04:07.589Z,47.50
2023-06-13T15:06:35.735Z,47.40
2023-06-13T15:09:04.827Z,47.60
2023-06-13T15:11:32.852Z,47.70
2023-06-13T15:14:00.610Z,48.00
2023-06-13T15:16:32.893Z,48.20
2023-06-13T15:19:00.692Z,48.40
2023-06-13T15:21:28.782Z,48.50
2023-06-13T15:23:56.647Z,48.60
2023-06-13T15:26:25.263Z,48.80
2023-06-13T15:28:53.665Z,48.80
2023-06-13T15:31:21.909Z,49.00
2023-06-13T15:33:49.821Z,49.00
2023-06-13T15:36:17.936Z,49.20
2023-06-13T15:38:45.765Z,49.40
2023-06-13T15:41:13.874Z,49.30
2023-06-13T15:43:41.541Z,49.20
2023-06-13T15:46:09.731Z,49.20
2023-06-13T15:48:37.445Z,49.10
2023-06-13T15:51:05.603Z,49.00
2023-06-13T15:53:33.803Z,49.00
2023-06-13T15:56:04.836Z,49.30
2023-06-13T15:58:32.498Z,49.60
2023-06-13T16:01:00.551Z,50.10
2023-06-13T16:03:28.498Z,50.50
2023-06-13T16:05:56.942Z,50.70
2023-06-13T16:08:24.684Z,51.40
2023-06-13T16:10:52.935Z,51.70
2023-06-13T16:13:20.739Z,51.90
2023-06-13T16:15:48.806Z,52.00
2023-06-13T16:18:16.978Z,51.80
2023-06-13T16:20:45.184Z,51.70
2023-06-13T16:23:13.358Z,51.70
2023-06-13T16:25:42.391Z,51.90
2023-06-13T16:28:10.715Z,51.80
2023-06-13T16:30:40.454Z,52.00
2023-06-13T16:33:08.652Z,52.00
2023-06-13T16:35:37.477Z,52.20
2023-06-13T16:38:05.362Z,52.00
2023-06-13T16:40:33.636Z,52.10
2023-06-13T16:43:01.576Z,52.20
2023-06-13T16:45:30.867Z,52.20
2023-06-13T16:47:58.659Z,52.30
2023-06-13T16:50:26.876Z,52.60
2023-06-13T16:52:55.466Z,52.50
2023-06-13T16:55:24.640Z,52.60
2023-06-13T16:57:52.640Z,52.70
2023-06-13T17:00:20.955Z,53.50
2023-06-13T17:02:49.152Z,53.80
2023-06-13T17:05:17.455Z,54.60
2023-06-13T17:07:45.534Z,54.70
2023-06-13T17:10:17.922Z,54.60
2023-06-13T17:12:45.889Z,54.80
2023-06-13T17:15:14.867Z,54.80
2023-06-13T17:17:43.029Z,54.80
2023-06-13T17:20:11.788Z,55.50
2023-06-13T17:22:39.676Z,55.80
2023-06-13T17:25:08.613Z,55.80
2023-06-13T17:27:36.900Z,55.70
2023-06-13T17:30:06.229Z,55.50
2023-06-13T17:32:34.835Z,55.40
2023-06-13T17:35:04.170Z,55.30
2023-06-13T17:37:33.060Z,55.20
2023-06-13T17:40:01.922Z,55.10
2023-06-13T17:42:30.291Z,55.00
2023-06-13T17:44:59.877Z,55.20
2023-06-13T17:47:28.587Z,55.10
2023-06-13T17:49:57.656Z,55.20
2023-06-13T17:52:27.153Z,55.30
2023-06-13T17:54:56.032Z,55.30
2023-06-13T17:57:25.766Z,55.60
2023-06-13T17:59:54.945Z,55.60
2023-06-13T18:02:23.433Z,55.50
2023-06-13T18:04:52.355Z,55.60
2023-06-13T18:07:21.387Z,55.50
2023-06-13T18:09:50.729Z,55.50
2023-06-13T18:12:22.166Z,55.60
2023-06-13T18:14:51.874Z,55.50
2023-06-13T18:17:20.351Z,55.70
2023-06-13T18:19:49.166Z,55.80
2023-06-13T18:22:18.282Z,55.70
2023-06-13T18:24:47.601Z,55.70
2023-06-13T18:27:17.959Z,55.90
2023-06-13T18:29:47.605Z,56.00
2023-06-13T18:32:16.910Z,56.00
2023-06-13T18:34:46.568Z,56.30
2023-06-13T18:37:14.987Z,56.40
2023-06-13T18:39:45.690Z,56.40
2023-06-13T18:42:14.598Z,56.40
2023-06-13T18:44:43.574Z,56.40
2023-06-13T18:47:12.500Z,56.50
2023-06-13T18:49:43.326Z,56.50
2023-06-13T18:52:12.331Z,56.70
2023-06-13T18:54:41.212Z,56.50
2023-06-13T18:57:10.365Z,56.40
2023-06-13T18:59:40.280Z,56.30
2023-06-13T19:02:09.034Z,56.20
2023-06-13T19:04:40.403Z,56.30
2023-06-13T19:07:08.404Z,56.20
2023-06-13T19:09:37.369Z,56.20
2023-06-13T19:12:05.644Z,56.20
2023-06-13T19:14:34.811Z,56.30
2023-06-13T19:17:02.997Z,56.30
2023-06-13T19:19:31.111Z,56.30
2023-06-13T19:21:59.362Z,56.20
2023-06-13T19:24:28.457Z,56.40
2023-06-13T19:26:56.647Z,56.50
2023-06-13T19:29:25.321Z,56.60
2023-06-13T19:31:53.521Z,56.70
2023-06-13T19:34:21.840Z,56.70
2023-06-13T19:36:49.622Z,56.80
2023-06-13T19:39:18.860Z,56.80
2023-06-13T19:41:48.209Z,56.70
2023-06-13T19:44:17.237Z,56.70
2023-06-13T19:46:45.431Z,56.80
2023-06-13T19:49:14.596Z,56.80
2023-06-13T19:51:43.361Z,56.80
2023-06-13T19:54:13.248Z,56.80
2023-06-13T19:56:41.704Z,56.90
2023-06-13T19:59:11.421Z,56.90
2023-06-13T20:01:40.124Z,56.90
2023-06-13T20:04:08.997Z,57.00
2023-06-13T20:06:38.906Z,57.00
2023-06-13T20:09:07.524Z,57.00
2023-06-13T20:11:36.517Z,57.10
2023-06-13T20:14:05.420Z,57.20
2023-06-13T20:16:35.360Z,57.20
2023-06-13T20:19:04.840Z,57.20
2023-06-13T20:21:32.984Z,57.20
2023-06-13T20:24:02.926Z,57.10
2023-06-13T20:26:30.739Z,57.00
2023-06-13T20:28:59.321Z,57.00
2023-06-13T20:31:27.483Z,57.10
2023-06-13T20:33:55.642Z,57.10
2023-06-13T20:36:23.800Z,57.20
2023-06-13T20:38:51.857Z,57.30
2023-06-13T20:41:23.545Z,57.40
2023-06-13T20:43:52.228Z,57.40
2023-06-13T20:46:20.083Z,57.40
2023-06-13T20:48:49.462Z,57.50
2023-06-13T20:51:17.472Z,57.80
2023-06-13T20:53:46.137Z,57.90
2023-06-13T20:56:14.292Z,58.00
2023-06-13T20:58:43.625Z,58.00
2023-06-13T21:01:12.519Z,58.00
2023-06-13T21:03:41.925Z,58.00
2023-06-13T21:06:11.235Z,58.00
2023-06-13T21:08:40.473Z,58.10
2023-06-13T21:11:08.171Z,58.10
2023-06-13T21:13:37.362Z,58.40
2023-06-13T21:16:07.401Z,58.50
2023-06-13T21:18:36.285Z,59.00
2023-06-13T21:21:04.234Z,59.40
2023-06-13T21:23:32.356Z,59.40
2023-06-13T21:26:00.197Z,59.50
2023-06-13T21:28:28.377Z,59.70
2023-06-13T21:30:56.000Z,59.80
2023-06-13T21:33:28.878Z,60.10
2023-06-13T21:35:59.248Z,60.20
2023-06-13T21:38:29.883Z,60.70
2023-06-13T21:40:57.626Z,60.70
2023-06-13T21:43:27.456Z,60.90
2023-06-13T21:45:58.241Z,61.00
2023-06-13T21:48:26.393Z,61.20
2023-06-13T21:50:54.278Z,61.40
2023-06-13T21:53:22.896Z,61.40
2023-06-13T21:55:50.842Z,61.50
2023-06-13T21:58:20.126Z,61.70
2023-06-13T22:00:48.266Z,62.00
2023-06-13T22:03:16.410Z,62.00
2023-06-13T22:05:44.219Z,61.90
2023-06-13T22:08:12.463Z,61.80
2023-06-13T22:10:42.246Z,62.00
2023-06-13T22:13:11.589Z,62.10
2023-06-13T22:15:39.243Z,62.10
2023-06-13T22:18:07.730Z,62.00
2023-06-13T22:20:35.468Z,61.90
2023-06-13T22:23:04.007Z,61.90
2023-06-13T22:25:31.782Z,61.90
2023-06-13T22:27:59.734Z,61.90
2023-06-13T22:30:27.490Z,61.90
2023-06-13T22:32:56.750Z,61.90
2023-06-13T22:35:24.579Z,61.90
2023-06-13T22:37:53.048Z,62.10
2023-06-13T22:40:21.082Z,62.20
2023-06-13T22:42:49.300Z,62.20
2023-06-13T22:45:17.135Z,62.20
2023-06-13T22:47:46.420Z,62.20
2023-06-13T22:50:16.110Z,62.10
2023-06-13T22:52:44.708Z,62.10
2023-06-13T22:55:12.480Z,62.10
2023-06-13T22:57:41.598Z,62.00
2023-06-13T23:00:13.726Z,62.00
2023-06-13T23:02:42.637Z,62.00
2023-06-13T23:05:10.519Z,62.00
2023-06-13T23:07:38.518Z,62.00
2023-06-13T23:10:06.517Z,61.90
2023-06-13T23:12:34.465Z,61.90
2023-06-13T23:15:02.144Z,61.90
2023-06-13T23:17:30.241Z,61.90
2023-06-13T23:19:58.487Z,61.90
2023-06-13T23:22:27.600Z,62.00
2023-06-13T23:24:56.629Z,62.30
2023-06-13T23:27:26.268Z,62.80
2023-06-13T23:29:54.972Z,63.00
2023-06-13T23:32:25.478Z,63.20
2023-06-13T23:34:55.521Z,63.50
2023-06-13T23:37:24.818Z,63.90
2023-06-13T23:39:52.694Z,64.20
2023-06-13T23:42:20.827Z,64.30
2023-06-13T23:44:48.538Z,64.30
2023-06-13T23:47:17.903Z,64.40
2023-06-13T23:49:45.587Z,64.30
2023-06-13T23:52:13.907Z,64.20
2023-06-13T23:54:41.800Z,64.10
2023-06-13T23:57:09.713Z,64.10
2023-06-13T23:59:37.445Z,64.10
